sensor_id;sensor_type;location;lat;lon;timestamp;temperature;humidity
2363;DHT22;64265;51.664;7.626;2023-03-24T00:01:50;21.00;77.90
2363;DHT22;64265;51.664;7.626;2023-03-24T00:04:17;21.00;78.00
2363;DHT22;64265;51.664;7.626;2023-03-24T00:06:44;21.00;78.80
2363;DHT22;64265;51.664;7.626;2023-03-24T00:09:13;21.00;78.10
2363;DHT22;64265;51.664;7.626;2023-03-24T00:11:40;21.00;78.10
2363;DHT22;64265;51.664;7.626;2023-03-24T00:14:08;21.00;78.10
2363;DHT22;64265;51.664;7.626;2023-03-24T00:16:36;21.00;78.10
2363;DHT22;64265;51.664;7.626;2023-03-24T00:19:07;20.90;78.10
2363;DHT22;64265;51.664;7.626;2023-03-24T00:21:34;20.90;78.10
2363;DHT22;64265;51.664;7.626;2023-03-24T00:24:03;20.90;78.10
2363;DHT22;64265;51.664;7.626;2023-03-24T00:26:32;20.90;78.20
2363;DHT22;64265;51.664;7.626;2023-03-24T00:28:59;20.90;78.20
2363;DHT22;64265;51.664;7.626;2023-03-24T00:31:28;20.90;78.20
2363;DHT22;64265;51.664;7.626;2023-03-24T00:33:55;20.90;78.20
2363;DHT22;64265;51.664;7.626;2023-03-24T00:36:23;20.90;78.30
2363;DHT22;64265;51.664;7.626;2023-03-24T00:38:51;20.90;78.30
2363;DHT22;64265;51.664;7.626;2023-03-24T00:41:18;20.90;78.30
2363;DHT22;64265;51.664;7.626;2023-03-24T00:43:46;20.90;78.30
2363;DHT22;64265;51.664;7.626;2023-03-24T00:46:14;20.90;78.30
2363;DHT22;64265;51.664;7.626;2023-03-24T00:48:53;20.80;78.30
2363;DHT22;64265;51.664;7.626;2023-03-24T00:51:23;20.80;78.30
2363;DHT22;64265;51.664;7.626;2023-03-24T00:53:49;20.80;78.30
2363;DHT22;64265;51.664;7.626;2023-03-24T00:56:23;20.80;78.30
2363;DHT22;64265;51.664;7.626;2023-03-24T00:58:50;20.80;78.30
2363;DHT22;64265;51.664;7.626;2023-03-24T01:01:16;20.80;78.30
2363;DHT22;64265;51.664;7.626;2023-03-24T01:03:46;20.80;78.40
2363;DHT22;64265;51.664;7.626;2023-03-24T01:06:17;20.80;78.40
2363;DHT22;64265;51.664;7.626;2023-03-24T01:08:47;20.80;78.40
2363;DHT22;64265;51.664;7.626;2023-03-24T01:11:15;20.80;78.40
2363;DHT22;64265;51.664;7.626;2023-03-24T01:13:42;20.80;78.40
2363;DHT22;64265;51.664;7.626;2023-03-24T01:16:09;20.70;78.40
2363;DHT22;64265;51.664;7.626;2023-03-24T01:18:36;20.70;78.40
2363;DHT22;64265;51.664;7.626;2023-03-24T01:21:06;20.70;78.40
2363;DHT22;64265;51.664;7.626;2023-03-24T01:23:34;20.70;78.40
2363;DHT22;64265;51.664;7.626;2023-03-24T01:26:05;20.70;78.40
2363;DHT22;64265;51.664;7.626;2023-03-24T01:28:32;20.70;78.40
2363;DHT22;64265;51.664;7.626;2023-03-24T01:31:04;20.70;78.40
2363;DHT22;64265;51.664;7.626;2023-03-24T01:33:31;20.70;78.50
2363;DHT22;64265;51.664;7.626;2023-03-24T01:35:58;20.70;78.50
2363;DHT22;64265;51.664;7.626;2023-03-24T01:38:25;20.60;78.40
2363;DHT22;64265;51.664;7.626;2023-03-24T01:40:53;20.60;78.40
2363;DHT22;64265;51.664;7.626;2023-03-24T01:43:22;20.60;78.40
2363;DHT22;64265;51.664;7.626;2023-03-24T01:46:00;20.60;78.40
2363;DHT22;64265;51.664;7.626;2023-03-24T01:48:30;20.60;78.40
2363;DHT22;64265;51.664;7.626;2023-03-24T01:51:03;20.60;78.50
2363;DHT22;64265;51.664;7.626;2023-03-24T01:53:33;20.60;78.40
2363;DHT22;64265;51.664;7.626;2023-03-24T01:56:05;20.60;78.40
2363;DHT22;64265;51.664;7.626;2023-03-24T01:58:32;20.60;78.50
2363;DHT22;64265;51.664;7.626;2023-03-24T02:01:01;20.60;78.50
2363;DHT22;64265;51.664;7.626;2023-03-24T02:03:29;20.60;78.50
2363;DHT22;64265;51.664;7.626;2023-03-24T02:05:59;20.60;78.50
2363;DHT22;64265;51.664;7.626;2023-03-24T02:08:30;20.60;78.50
2363;DHT22;64265;51.664;7.626;2023-03-24T02:10:59;20.60;78.60
2363;DHT22;64265;51.664;7.626;2023-03-24T02:13:28;20.60;78.60
2363;DHT22;64265;51.664;7.626;2023-03-24T02:16:11;20.50;78.50
2363;DHT22;64265;51.664;7.626;2023-03-24T02:18:47;20.50;78.50
2363;DHT22;64265;51.664;7.626;2023-03-24T02:21:39;20.50;79.30
2363;DHT22;64265;51.664;7.626;2023-03-24T02:24:42;20.50;78.50
2363;DHT22;64265;51.664;7.626;2023-03-24T02:27:43;20.50;78.50
2363;DHT22;64265;51.664;7.626;2023-03-24T02:30:25;20.50;78.60
2363;DHT22;64265;51.664;7.626;2023-03-24T02:33:29;20.50;78.60
2363;DHT22;64265;51.664;7.626;2023-03-24T02:39:41;20.50;78.60
2363;DHT22;64265;51.664;7.626;2023-03-24T02:42:21;20.50;78.60
2363;DHT22;64265;51.664;7.626;2023-03-24T02:44:56;20.50;78.60
2363;DHT22;64265;51.664;7.626;2023-03-24T02:47:33;20.40;78.60
2363;DHT22;64265;51.664;7.626;2023-03-24T02:50:09;20.40;78.60
2363;DHT22;64265;51.664;7.626;2023-03-24T02:52:45;20.40;78.50
2363;DHT22;64265;51.664;7.626;2023-03-24T02:55:18;20.40;78.60
2363;DHT22;64265;51.664;7.626;2023-03-24T02:57:50;20.40;78.60
2363;DHT22;64265;51.664;7.626;2023-03-24T03:00:21;20.40;78.60
2363;DHT22;64265;51.664;7.626;2023-03-24T03:02:56;20.40;78.60
2363;DHT22;64265;51.664;7.626;2023-03-24T03:05:27;20.40;78.60
2363;DHT22;64265;51.664;7.626;2023-03-24T03:07:57;20.40;78.60
2363;DHT22;64265;51.664;7.626;2023-03-24T03:10:29;20.40;78.60
2363;DHT22;64265;51.664;7.626;2023-03-24T03:12:59;20.40;78.60
2363;DHT22;64265;51.664;7.626;2023-03-24T03:15:31;20.40;78.60
2363;DHT22;64265;51.664;7.626;2023-03-24T03:18:02;20.40;78.70
2363;DHT22;64265;51.664;7.626;2023-03-24T03:20:37;20.40;78.70
2363;DHT22;64265;51.664;7.626;2023-03-24T03:23:09;20.40;78.70
2363;DHT22;64265;51.664;7.626;2023-03-24T03:25:42;20.30;78.60
2363;DHT22;64265;51.664;7.626;2023-03-24T03:28:17;20.30;78.60
2363;DHT22;64265;51.664;7.626;2023-03-24T03:30:48;20.30;78.60
2363;DHT22;64265;51.664;7.626;2023-03-24T03:33:19;20.30;78.50
2363;DHT22;64265;51.664;7.626;2023-03-24T03:35:52;20.30;79.30
2363;DHT22;64265;51.664;7.626;2023-03-24T03:38:24;20.30;78.60
2363;DHT22;64265;51.664;7.626;2023-03-24T03:40:57;20.30;78.70
2363;DHT22;64265;51.664;7.626;2023-03-24T03:43:26;20.30;78.70
2363;DHT22;64265;51.664;7.626;2023-03-24T03:45:53;20.30;78.70
2363;DHT22;64265;51.664;7.626;2023-03-24T03:48:20;20.30;78.70
2363;DHT22;64265;51.664;7.626;2023-03-24T03:50:51;20.30;78.70
2363;DHT22;64265;51.664;7.626;2023-03-24T03:53:20;20.30;78.80
2363;DHT22;64265;51.664;7.626;2023-03-24T03:55:48;20.30;78.80
2363;DHT22;64265;51.664;7.626;2023-03-24T03:58:18;20.30;78.70
2363;DHT22;64265;51.664;7.626;2023-03-24T04:00:45;20.30;78.70
2363;DHT22;64265;51.664;7.626;2023-03-24T04:03:27;20.20;78.60
2363;DHT22;64265;51.664;7.626;2023-03-24T04:06:01;20.20;78.60
2363;DHT22;64265;51.664;7.626;2023-03-24T04:08:37;20.20;78.70
2363;DHT22;64265;51.664;7.626;2023-03-24T04:11:31;20.20;78.70
2363;DHT22;64265;51.664;7.626;2023-03-24T04:14:18;20.20;79.50
2363;DHT22;64265;51.664;7.626;2023-03-24T04:16:55;20.20;78.70
2363;DHT22;64265;51.664;7.626;2023-03-24T04:19:33;20.20;78.70
2363;DHT22;64265;51.664;7.626;2023-03-24T04:22:17;20.20;78.70
2363;DHT22;64265;51.664;7.626;2023-03-24T04:24:51;20.20;78.80
2363;DHT22;64265;51.664;7.626;2023-03-24T04:27:24;20.20;78.70
2363;DHT22;64265;51.664;7.626;2023-03-24T04:30:00;20.20;78.80
2363;DHT22;64265;51.664;7.626;2023-03-24T04:32:36;20.20;78.80
2363;DHT22;64265;51.664;7.626;2023-03-24T04:35:09;20.20;78.80
2363;DHT22;64265;51.664;7.626;2023-03-24T04:37:37;20.10;79.40
2363;DHT22;64265;51.664;7.626;2023-03-24T04:40:08;20.10;78.70
2363;DHT22;64265;51.664;7.626;2023-03-24T04:42:38;20.10;78.70
2363;DHT22;64265;51.664;7.626;2023-03-24T04:45:08;20.10;78.70
2363;DHT22;64265;51.664;7.626;2023-03-24T04:47:41;20.10;78.70
2363;DHT22;64265;51.664;7.626;2023-03-24T04:50:10;20.10;78.70
2363;DHT22;64265;51.664;7.626;2023-03-24T04:52:38;20.10;78.70
2363;DHT22;64265;51.664;7.626;2023-03-24T04:55:30;20.10;78.70
2363;DHT22;64265;51.664;7.626;2023-03-24T04:57:57;20.10;78.70
2363;DHT22;64265;51.664;7.626;2023-03-24T05:00:25;20.10;78.70
2363;DHT22;64265;51.664;7.626;2023-03-24T05:02:53;20.10;78.80
2363;DHT22;64265;51.664;7.626;2023-03-24T05:05:19;20.10;78.80
2363;DHT22;64265;51.664;7.626;2023-03-24T05:07:46;20.10;78.70
2363;DHT22;64265;51.664;7.626;2023-03-24T05:10:14;20.10;78.80
2363;DHT22;64265;51.664;7.626;2023-03-24T05:12:41;20.10;78.70
2363;DHT22;64265;51.664;7.626;2023-03-24T05:15:08;20.10;78.80
2363;DHT22;64265;51.664;7.626;2023-03-24T05:17:36;20.10;78.70
2363;DHT22;64265;51.664;7.626;2023-03-24T05:20:03;20.10;78.80
2363;DHT22;64265;51.664;7.626;2023-03-24T05:22:35;20.10;78.80
2363;DHT22;64265;51.664;7.626;2023-03-24T05:25:02;20.10;78.80
2363;DHT22;64265;51.664;7.626;2023-03-24T05:27:28;20.10;78.80
2363;DHT22;64265;51.664;7.626;2023-03-24T05:29:55;20.10;78.80
2363;DHT22;64265;51.664;7.626;2023-03-24T05:32:22;20.00;78.70
2363;DHT22;64265;51.664;7.626;2023-03-24T05:34:50;20.00;78.70
2363;DHT22;64265;51.664;7.626;2023-03-24T05:37:17;20.00;78.70
2363;DHT22;64265;51.664;7.626;2023-03-24T05:39:44;20.00;78.70
2363;DHT22;64265;51.664;7.626;2023-03-24T05:42:10;20.00;78.70
2363;DHT22;64265;51.664;7.626;2023-03-24T05:44:37;20.00;78.70
2363;DHT22;64265;51.664;7.626;2023-03-24T05:47:04;20.00;78.70
2363;DHT22;64265;51.664;7.626;2023-03-24T05:49:31;20.00;78.70
2363;DHT22;64265;51.664;7.626;2023-03-24T05:51:59;20.00;78.70
2363;DHT22;64265;51.664;7.626;2023-03-24T05:54:25;20.00;78.70
2363;DHT22;64265;51.664;7.626;2023-03-24T05:56:52;20.00;78.80
2363;DHT22;64265;51.664;7.626;2023-03-24T05:59:19;20.00;78.70
2363;DHT22;64265;51.664;7.626;2023-03-24T06:01:47;20.00;78.70
2363;DHT22;64265;51.664;7.626;2023-03-24T06:04:13;20.00;78.80
2363;DHT22;64265;51.664;7.626;2023-03-24T06:06:40;20.00;78.70
2363;DHT22;64265;51.664;7.626;2023-03-24T06:09:11;20.00;78.70
2363;DHT22;64265;51.664;7.626;2023-03-24T06:11:39;20.00;78.70
2363;DHT22;64265;51.664;7.626;2023-03-24T06:14:05;19.90;78.60
2363;DHT22;64265;51.664;7.626;2023-03-24T06:16:33;20.00;78.70
2363;DHT22;64265;51.664;7.626;2023-03-24T06:19:04;19.90;78.50
2363;DHT22;64265;51.664;7.626;2023-03-24T06:21:31;20.00;78.50
2363;DHT22;64265;51.664;7.626;2023-03-24T06:23:58;20.00;78.40
2363;DHT22;64265;51.664;7.626;2023-03-24T06:26:26;20.00;78.30
2363;DHT22;64265;51.664;7.626;2023-03-24T06:28:56;20.00;78.30
2363;DHT22;64265;51.664;7.626;2023-03-24T06:31:23;20.10;78.40
2363;DHT22;64265;51.664;7.626;2023-03-24T06:33:52;20.10;78.30
2363;DHT22;64265;51.664;7.626;2023-03-24T06:36:19;20.10;78.30
2363;DHT22;64265;51.664;7.626;2023-03-24T06:38:47;20.10;78.30
2363;DHT22;64265;51.664;7.626;2023-03-24T06:41:14;20.10;78.30
2363;DHT22;64265;51.664;7.626;2023-03-24T06:43:42;20.10;78.30
2363;DHT22;64265;51.664;7.626;2023-03-24T06:46:09;20.10;78.30
2363;DHT22;64265;51.664;7.626;2023-03-24T06:48:36;20.10;78.30
2363;DHT22;64265;51.664;7.626;2023-03-24T06:51:04;20.10;78.30
2363;DHT22;64265;51.664;7.626;2023-03-24T06:53:30;20.10;78.30
2363;DHT22;64265;51.664;7.626;2023-03-24T06:55:57;20.10;78.30
2363;DHT22;64265;51.664;7.626;2023-03-24T06:58:24;20.10;78.20
2363;DHT22;64265;51.664;7.626;2023-03-24T07:00:52;20.20;78.20
2363;DHT22;64265;51.664;7.626;2023-03-24T07:03:19;20.20;78.10
2363;DHT22;64265;51.664;7.626;2023-03-24T07:05:47;20.20;78.10
2363;DHT22;64265;51.664;7.626;2023-03-24T07:08:14;20.30;78.10
2363;DHT22;64265;51.664;7.626;2023-03-24T07:10:42;20.30;78.00
2363;DHT22;64265;51.664;7.626;2023-03-24T07:13:09;20.30;78.00
2363;DHT22;64265;51.664;7.626;2023-03-24T07:15:36;20.40;78.00
2363;DHT22;64265;51.664;7.626;2023-03-24T07:18:04;20.40;77.90
2363;DHT22;64265;51.664;7.626;2023-03-24T07:20:31;20.40;77.80
2363;DHT22;64265;51.664;7.626;2023-03-24T07:22:57;20.40;77.80
2363;DHT22;64265;51.664;7.626;2023-03-24T07:25:24;20.40;77.70
2363;DHT22;64265;51.664;7.626;2023-03-24T07:27:52;20.40;77.80
2363;DHT22;64265;51.664;7.626;2023-03-24T07:30:19;20.50;77.80
2363;DHT22;64265;51.664;7.626;2023-03-24T07:32:46;20.50;77.80
2363;DHT22;64265;51.664;7.626;2023-03-24T07:35:16;20.50;77.80
2363;DHT22;64265;51.664;7.626;2023-03-24T07:37:43;20.50;77.90
2363;DHT22;64265;51.664;7.626;2023-03-24T07:40:11;20.50;77.80
2363;DHT22;64265;51.664;7.626;2023-03-24T07:42:39;20.50;77.80
2363;DHT22;64265;51.664;7.626;2023-03-24T07:45:08;20.50;77.80
2363;DHT22;64265;51.664;7.626;2023-03-24T07:47:35;20.50;77.80
2363;DHT22;64265;51.664;7.626;2023-03-24T07:50:03;20.50;77.80
2363;DHT22;64265;51.664;7.626;2023-03-24T07:52:35;20.50;77.70
2363;DHT22;64265;51.664;7.626;2023-03-24T07:55:06;20.60;77.90
2363;DHT22;64265;51.664;7.626;2023-03-24T07:57:34;20.60;77.80
2363;DHT22;64265;51.664;7.626;2023-03-24T08:00:03;20.60;77.80
2363;DHT22;64265;51.664;7.626;2023-03-24T08:02:39;20.60;77.70
2363;DHT22;64265;51.664;7.626;2023-03-24T08:05:06;20.60;77.70
2363;DHT22;64265;51.664;7.626;2023-03-24T08:07:36;20.60;77.60
2363;DHT22;64265;51.664;7.626;2023-03-24T08:10:03;20.70;77.80
2363;DHT22;64265;51.664;7.626;2023-03-24T08:12:29;20.70;77.80
2363;DHT22;64265;51.664;7.626;2023-03-24T08:14:56;20.70;77.90
2363;DHT22;64265;51.664;7.626;2023-03-24T08:17:23;20.70;77.90
2363;DHT22;64265;51.664;7.626;2023-03-24T08:19:50;20.60;77.70
2363;DHT22;64265;51.664;7.626;2023-03-24T08:22:16;20.70;78.20
2363;DHT22;64265;51.664;7.626;2023-03-24T08:24:45;20.70;78.00
2363;DHT22;64265;51.664;7.626;2023-03-24T08:27:11;20.70;77.80
2363;DHT22;64265;51.664;7.626;2023-03-24T08:29:38;20.80;77.80
2363;DHT22;64265;51.664;7.626;2023-03-24T08:32:05;20.80;77.90
2363;DHT22;64265;51.664;7.626;2023-03-24T08:34:32;20.80;78.00
2363;DHT22;64265;51.664;7.626;2023-03-24T08:36:58;20.80;77.90
2363;DHT22;64265;51.664;7.626;2023-03-24T08:39:25;20.80;78.10
2363;DHT22;64265;51.664;7.626;2023-03-24T08:41:53;20.80;78.00
2363;DHT22;64265;51.664;7.626;2023-03-24T08:44:20;20.80;78.10
2363;DHT22;64265;51.664;7.626;2023-03-24T08:46:47;20.80;78.10
2363;DHT22;64265;51.664;7.626;2023-03-24T08:49:13;20.80;78.00
2363;DHT22;64265;51.664;7.626;2023-03-24T08:51:40;20.80;78.10
2363;DHT22;64265;51.664;7.626;2023-03-24T08:54:07;20.80;78.10
2363;DHT22;64265;51.664;7.626;2023-03-24T08:56:37;20.80;78.00
2363;DHT22;64265;51.664;7.626;2023-03-24T08:59:05;20.80;78.00
2363;DHT22;64265;51.664;7.626;2023-03-24T09:01:32;20.90;78.10
2363;DHT22;64265;51.664;7.626;2023-03-24T09:04:00;20.90;78.00
2363;DHT22;64265;51.664;7.626;2023-03-24T09:06:27;20.90;78.10
2363;DHT22;64265;51.664;7.626;2023-03-24T09:08:53;20.80;77.90
2363;DHT22;64265;51.664;7.626;2023-03-24T09:11:21;20.90;78.10
2363;DHT22;64265;51.664;7.626;2023-03-24T09:13:48;20.90;78.00
2363;DHT22;64265;51.664;7.626;2023-03-24T09:16:17;20.90;78.00
2363;DHT22;64265;51.664;7.626;2023-03-24T09:18:44;20.90;77.90
2363;DHT22;64265;51.664;7.626;2023-03-24T09:21:12;20.90;77.90
2363;DHT22;64265;51.664;7.626;2023-03-24T09:23:38;20.90;77.90
2363;DHT22;64265;51.664;7.626;2023-03-24T09:26:05;20.90;77.90
2363;DHT22;64265;51.664;7.626;2023-03-24T09:28:32;20.90;77.90
2363;DHT22;64265;51.664;7.626;2023-03-24T09:31:02;20.90;77.90
2363;DHT22;64265;51.664;7.626;2023-03-24T09:33:30;20.90;77.90
2363;DHT22;64265;51.664;7.626;2023-03-24T09:36:00;20.90;77.80
2363;DHT22;64265;51.664;7.626;2023-03-24T09:38:28;20.90;77.80
2363;DHT22;64265;51.664;7.626;2023-03-24T09:40:56;20.90;77.80
2363;DHT22;64265;51.664;7.626;2023-03-24T09:43:33;20.90;77.80
2363;DHT22;64265;51.664;7.626;2023-03-24T09:46:04;20.90;77.80
2363;DHT22;64265;51.664;7.626;2023-03-24T09:48:37;20.90;77.80
2363;DHT22;64265;51.664;7.626;2023-03-24T09:51:08;20.90;77.80
2363;DHT22;64265;51.664;7.626;2023-03-24T09:53:41;20.90;77.80
2363;DHT22;64265;51.664;7.626;2023-03-24T09:56:12;20.90;77.80
2363;DHT22;64265;51.664;7.626;2023-03-24T09:58:40;21.00;77.90
2363;DHT22;64265;51.664;7.626;2023-03-24T10:01:12;21.00;77.90
2363;DHT22;64265;51.664;7.626;2023-03-24T10:03:41;21.00;78.10
2363;DHT22;64265;51.664;7.626;2023-03-24T10:06:10;21.00;78.90
2363;DHT22;64265;51.664;7.626;2023-03-24T10:08:41;21.10;78.30
2363;DHT22;64265;51.664;7.626;2023-03-24T10:11:14;21.10;78.40
2363;DHT22;64265;51.664;7.626;2023-03-24T10:13:53;21.10;78.50
2363;DHT22;64265;51.664;7.626;2023-03-24T10:16:26;21.10;79.40
2363;DHT22;64265;51.664;7.626;2023-03-24T10:19:01;21.10;78.70
2363;DHT22;64265;51.664;7.626;2023-03-24T10:21:31;21.10;78.70
2363;DHT22;64265;51.664;7.626;2023-03-24T10:24:04;21.20;78.90
2363;DHT22;64265;51.664;7.626;2023-03-24T10:26:37;21.20;79.00
2363;DHT22;64265;51.664;7.626;2023-03-24T10:29:18;21.20;79.30
2363;DHT22;64265;51.664;7.626;2023-03-24T10:31:50;21.20;79.30
2363;DHT22;64265;51.664;7.626;2023-03-24T10:34:18;21.20;79.50
2363;DHT22;64265;51.664;7.626;2023-03-24T10:36:47;21.20;79.60
2363;DHT22;64265;51.664;7.626;2023-03-24T10:39:15;21.20;79.70
2363;DHT22;64265;51.664;7.626;2023-03-24T10:41:43;21.20;79.70
2363;DHT22;64265;51.664;7.626;2023-03-24T10:44:11;21.20;79.70
2363;DHT22;64265;51.664;7.626;2023-03-24T10:46:44;21.20;79.70
2363;DHT22;64265;51.664;7.626;2023-03-24T10:49:15;21.20;79.70
2363;DHT22;64265;51.664;7.626;2023-03-24T10:51:45;21.20;79.60
2363;DHT22;64265;51.664;7.626;2023-03-24T10:54:17;21.30;79.70
2363;DHT22;64265;51.664;7.626;2023-03-24T10:56:45;21.30;79.70
2363;DHT22;64265;51.664;7.626;2023-03-24T10:59:21;21.30;79.90
2363;DHT22;64265;51.664;7.626;2023-03-24T11:01:56;21.30;79.80
2363;DHT22;64265;51.664;7.626;2023-03-24T11:04:25;21.30;80.00
2363;DHT22;64265;51.664;7.626;2023-03-24T11:07:02;21.30;80.00
2363;DHT22;64265;51.664;7.626;2023-03-24T11:09:38;21.30;79.80
2363;DHT22;64265;51.664;7.626;2023-03-24T11:12:19;21.30;79.80
2363;DHT22;64265;51.664;7.626;2023-03-24T11:14:46;21.30;79.80
2363;DHT22;64265;51.664;7.626;2023-03-24T11:17:14;21.40;79.90
2363;DHT22;64265;51.664;7.626;2023-03-24T11:19:50;21.40;79.90
2363;DHT22;64265;51.664;7.626;2023-03-24T11:22:19;21.40;80.00
2363;DHT22;64265;51.664;7.626;2023-03-24T11:24:48;21.40;80.00
2363;DHT22;64265;51.664;7.626;2023-03-24T11:27:16;21.40;80.00
2363;DHT22;64265;51.664;7.626;2023-03-24T11:29:48;21.40;80.00
2363;DHT22;64265;51.664;7.626;2023-03-24T11:32:20;21.40;79.90
2363;DHT22;64265;51.664;7.626;2023-03-24T11:34:50;21.40;80.00
2363;DHT22;64265;51.664;7.626;2023-03-24T11:37:24;21.30;79.90
2363;DHT22;64265;51.664;7.626;2023-03-24T11:40:18;21.40;80.80
2363;DHT22;64265;51.664;7.626;2023-03-24T11:42:48;21.40;80.00
2363;DHT22;64265;51.664;7.626;2023-03-24T11:45:21;21.40;80.00
2363;DHT22;64265;51.664;7.626;2023-03-24T11:47:50;21.40;80.00
2363;DHT22;64265;51.664;7.626;2023-03-24T11:50:20;21.40;80.00
2363;DHT22;64265;51.664;7.626;2023-03-24T11:52:52;21.50;80.10
2363;DHT22;64265;51.664;7.626;2023-03-24T11:55:26;21.50;80.10
2363;DHT22;64265;51.664;7.626;2023-03-24T11:57:56;21.50;80.10
2363;DHT22;64265;51.664;7.626;2023-03-24T12:00:27;21.50;80.10
2363;DHT22;64265;51.664;7.626;2023-03-24T12:05:51;21.50;80.30
2363;DHT22;64265;51.664;7.626;2023-03-24T12:08:33;21.60;80.30
2363;DHT22;64265;51.664;7.626;2023-03-24T12:11:13;21.60;80.30
2363;DHT22;64265;51.664;7.626;2023-03-24T12:13:43;21.60;80.40
2363;DHT22;64265;51.664;7.626;2023-03-24T12:16:26;21.60;80.40
2363;DHT22;64265;51.664;7.626;2023-03-24T12:19:26;21.60;80.50
2363;DHT22;64265;51.664;7.626;2023-03-24T12:22:05;21.60;80.50
2363;DHT22;64265;51.664;7.626;2023-03-24T12:24:48;21.60;80.70
2363;DHT22;64265;51.664;7.626;2023-03-24T12:27:27;21.60;80.60
2363;DHT22;64265;51.664;7.626;2023-03-24T12:30:00;21.60;80.70
2363;DHT22;64265;51.664;7.626;2023-03-24T12:32:46;21.60;80.70
2363;DHT22;64265;51.664;7.626;2023-03-24T12:38:24;21.60;80.90
2363;DHT22;64265;51.664;7.626;2023-03-24T12:41:09;21.60;80.90
2363;DHT22;64265;51.664;7.626;2023-03-24T12:43:46;21.60;80.70
2363;DHT22;64265;51.664;7.626;2023-03-24T12:46:27;21.60;80.70
2363;DHT22;64265;51.664;7.626;2023-03-24T12:49:17;21.60;80.70
2363;DHT22;64265;51.664;7.626;2023-03-24T12:51:51;21.60;80.70
2363;DHT22;64265;51.664;7.626;2023-03-24T12:54:29;21.60;80.70
2363;DHT22;64265;51.664;7.626;2023-03-24T12:57:02;21.60;80.70
2363;DHT22;64265;51.664;7.626;2023-03-24T12:59:34;21.60;80.60
2363;DHT22;64265;51.664;7.626;2023-03-24T13:02:11;21.60;80.70
2363;DHT22;64265;51.664;7.626;2023-03-24T13:04:44;21.60;80.70
2363;DHT22;64265;51.664;7.626;2023-03-24T13:07:16;21.60;80.70
2363;DHT22;64265;51.664;7.626;2023-03-24T13:09:48;21.70;80.90
2363;DHT22;64265;51.664;7.626;2023-03-24T13:12:20;21.70;81.00
2363;DHT22;64265;51.664;7.626;2023-03-24T13:14:52;21.70;81.60
2363;DHT22;64265;51.664;7.626;2023-03-24T13:17:23;21.70;80.80
2363;DHT22;64265;51.664;7.626;2023-03-24T13:19:54;21.70;80.70
2363;DHT22;64265;51.664;7.626;2023-03-24T13:22:24;21.70;80.70
2363;DHT22;64265;51.664;7.626;2023-03-24T13:24:52;21.70;80.50
2363;DHT22;64265;51.664;7.626;2023-03-24T13:27:23;21.70;80.40
2363;DHT22;64265;51.664;7.626;2023-03-24T13:30:10;21.70;80.10
2363;DHT22;64265;51.664;7.626;2023-03-24T13:32:43;21.60;79.30
2363;DHT22;64265;51.664;7.626;2023-03-24T13:35:17;21.60;79.00
2363;DHT22;64265;51.664;7.626;2023-03-24T13:37:48;21.70;79.20
2363;DHT22;64265;51.664;7.626;2023-03-24T13:40:21;21.70;79.20
2363;DHT22;64265;51.664;7.626;2023-03-24T13:42:53;21.70;79.20
2363;DHT22;64265;51.664;7.626;2023-03-24T13:45:39;21.70;79.20
2363;DHT22;64265;51.664;7.626;2023-03-24T13:48:18;21.70;79.10
2363;DHT22;64265;51.664;7.626;2023-03-24T13:50:54;21.80;79.20
2363;DHT22;64265;51.664;7.626;2023-03-24T13:53:32;21.80;79.20
2363;DHT22;64265;51.664;7.626;2023-03-24T13:56:01;21.80;79.20
2363;DHT22;64265;51.664;7.626;2023-03-24T13:58:50;21.80;79.20
2363;DHT22;64265;51.664;7.626;2023-03-24T14:01:33;21.80;79.20
2363;DHT22;64265;51.664;7.626;2023-03-24T14:04:24;21.80;79.10
2363;DHT22;64265;51.664;7.626;2023-03-24T14:06:52;21.80;79.00
2363;DHT22;64265;51.664;7.626;2023-03-24T14:09:21;21.80;79.10
2363;DHT22;64265;51.664;7.626;2023-03-24T14:12:11;21.80;79.10
2363;DHT22;64265;51.664;7.626;2023-03-24T14:15:11;21.80;79.00
2363;DHT22;64265;51.664;7.626;2023-03-24T14:17:41;21.80;79.00
2363;DHT22;64265;51.664;7.626;2023-03-24T14:20:31;21.80;79.00
2363;DHT22;64265;51.664;7.626;2023-03-24T14:22:58;21.80;79.20
2363;DHT22;64265;51.664;7.626;2023-03-24T14:25:27;21.70;79.20
2363;DHT22;64265;51.664;7.626;2023-03-24T14:28:06;21.70;79.20
2363;DHT22;64265;51.664;7.626;2023-03-24T14:30:36;21.70;79.20
2363;DHT22;64265;51.664;7.626;2023-03-24T14:33:12;21.70;79.30
2363;DHT22;64265;51.664;7.626;2023-03-24T14:35:47;21.70;79.20
2363;DHT22;64265;51.664;7.626;2023-03-24T14:38:21;21.60;79.10
2363;DHT22;64265;51.664;7.626;2023-03-24T14:40:50;21.60;79.10
2363;DHT22;64265;51.664;7.626;2023-03-24T14:43:22;21.60;79.00
2363;DHT22;64265;51.664;7.626;2023-03-24T14:45:57;21.60;79.00
2363;DHT22;64265;51.664;7.626;2023-03-24T14:48:37;21.60;79.00
2363;DHT22;64265;51.664;7.626;2023-03-24T14:51:15;21.60;78.90
2363;DHT22;64265;51.664;7.626;2023-03-24T14:53:42;21.60;78.90
2363;DHT22;64265;51.664;7.626;2023-03-24T14:56:12;21.60;78.80
2363;DHT22;64265;51.664;7.626;2023-03-24T14:58:41;21.60;78.80
2363;DHT22;64265;51.664;7.626;2023-03-24T15:01:10;21.60;78.80
2363;DHT22;64265;51.664;7.626;2023-03-24T15:03:42;21.60;78.70
2363;DHT22;64265;51.664;7.626;2023-03-24T15:06:15;21.60;78.70
2363;DHT22;64265;51.664;7.626;2023-03-24T15:08:48;21.60;78.70
2363;DHT22;64265;51.664;7.626;2023-03-24T15:11:18;21.60;78.70
2363;DHT22;64265;51.664;7.626;2023-03-24T15:13:48;21.60;78.50
2363;DHT22;64265;51.664;7.626;2023-03-24T15:16:20;21.60;78.40
2363;DHT22;64265;51.664;7.626;2023-03-24T15:18:50;21.70;78.40
2363;DHT22;64265;51.664;7.626;2023-03-24T15:21:23;21.70;78.40
2363;DHT22;64265;51.664;7.626;2023-03-24T15:23:50;21.70;78.40
2363;DHT22;64265;51.664;7.626;2023-03-24T15:26:18;21.70;78.40
2363;DHT22;64265;51.664;7.626;2023-03-24T15:28:52;21.70;78.40
2363;DHT22;64265;51.664;7.626;2023-03-24T15:31:20;21.80;78.50
2363;DHT22;64265;51.664;7.626;2023-03-24T15:33:49;21.80;78.50
2363;DHT22;64265;51.664;7.626;2023-03-24T15:36:20;21.80;78.60
2363;DHT22;64265;51.664;7.626;2023-03-24T15:38:49;21.80;78.60
2363;DHT22;64265;51.664;7.626;2023-03-24T15:41:18;21.80;78.60
2363;DHT22;64265;51.664;7.626;2023-03-24T15:43:47;21.80;78.60
2363;DHT22;64265;51.664;7.626;2023-03-24T15:46:23;21.80;78.70
2363;DHT22;64265;51.664;7.626;2023-03-24T15:48:51;21.80;78.70
2363;DHT22;64265;51.664;7.626;2023-03-24T15:51:18;21.80;78.70
2363;DHT22;64265;51.664;7.626;2023-03-24T15:53:46;21.80;78.70
2363;DHT22;64265;51.664;7.626;2023-03-24T15:56:24;21.80;78.70
2363;DHT22;64265;51.664;7.626;2023-03-24T15:58:53;21.80;78.80
2363;DHT22;64265;51.664;7.626;2023-03-24T16:01:25;21.80;78.80
2363;DHT22;64265;51.664;7.626;2023-03-24T16:03:56;21.80;78.80
2363;DHT22;64265;51.664;7.626;2023-03-24T16:06:27;21.80;78.80
2363;DHT22;64265;51.664;7.626;2023-03-24T16:08:57;21.80;78.80
2363;DHT22;64265;51.664;7.626;2023-03-24T16:11:26;21.80;79.60
2363;DHT22;64265;51.664;7.626;2023-03-24T16:13:53;21.80;78.90
2363;DHT22;64265;51.664;7.626;2023-03-24T16:16:25;21.80;78.90
2363;DHT22;64265;51.664;7.626;2023-03-24T16:18:53;21.80;78.90
2363;DHT22;64265;51.664;7.626;2023-03-24T16:21:22;21.80;78.90